Time;durP1;ratioP1;P1;durP2;ratioP2;P2;SDS_P1;SDS_P2;PMS_P1;PMS_P2;Temp;Humidity;BMP_temperature;BMP_pressure;BME280_temperature;BME280_humidity;BME280_pressure;Samples;Min_cycle;Max_cycle;Signal;HPM_P1;HPM_P2
2021/03/07 00:00:54;;;;;;;25.2;15.4;;;;;;;-3.12;60.29395;95991.26;;;;
2021/03/07 00:01:54;;;;;;;25.2;15.4;;;;;;;-3.12;60.29395;95991.26;;;;
2021/03/07 00:02:55;;;;;;;25.2;15.4;;;;;;;-3.12;60.29395;95991.26;;;;
2021/03/07 00:03:56;;;;;;;25.2;15.4;;;;;;;-3.12;60.29395;95991.26;;;;
2021/03/07 00:04:56;;;;;;;25.2;15.4;;;;;;;-3.12;60.29395;95991.26;;;;
2021/03/07 00:05:57;;;;;;;23.6;14.25;;;;;;;-3.25;60.49512;95992.83;;;;
2021/03/07 00:06:57;;;;;;;23.6;14.25;;;;;;;-3.25;60.49512;95992.83;;;;
2021/03/07 00:07:58;;;;;;;23.6;14.25;;;;;;;-3.25;60.49512;95992.83;;;;
2021/03/07 00:08:58;;;;;;;23.6;14.25;;;;;;;-3.25;60.49512;95992.83;;;;
2021/03/07 00:09:59;;;;;;;23.6;14.25;;;;;;;-3.25;60.49512;95992.83;;;;
2021/03/07 00:10:59;;;;;;;23.6;14.25;;;;;;;-3.25;60.49512;95992.83;;;;
2021/03/07 00:12:00;;;;;;;23.6;14.25;;;;;;;-3.25;60.49512;95992.83;;;;
2021/03/07 00:13:01;;;;;;;23.6;14.25;;;;;;;-3.25;60.49512;95992.83;;;;
2021/03/07 00:14:01;;;;;;;23.6;14.25;;;;;;;-3.25;60.49512;95992.83;;;;
2021/03/07 00:15:02;;;;;;;23.6;14.25;;;;;;;-3.25;60.49512;95992.83;;;;
2021/03/07 00:16:03;;;;;;;19.6;12.9;;;;;;;-3.3;60.72656;95996.36;;;;
2021/03/07 00:17:04;;;;;;;19.6;12.9;;;;;;;-3.3;60.72656;95996.36;;;;
2021/03/07 00:18:05;;;;;;;19.6;12.9;;;;;;;-3.3;60.72656;95996.36;;;;
2021/03/07 00:19:05;;;;;;;19.6;12.9;;;;;;;-3.3;60.72656;95996.36;;;;
2021/03/07 00:20:06;;;;;;;19.6;12.9;;;;;;;-3.3;60.72656;95996.36;;;;
2021/03/07 00:21:10;;;;;;;19.6;12.9;;;;;;;-3.3;60.72656;95996.36;;;;
2021/03/07 00:22:11;;;;;;;19.6;12.9;;;;;;;-3.3;60.72656;95996.36;;;;
2021/03/07 00:23:11;;;;;;;19.6;12.9;;;;;;;-3.3;60.72656;95996.36;;;;
2021/03/07 00:24:12;;;;;;;19.6;12.9;;;;;;;-3.3;60.72656;95996.36;;;;
2021/03/07 00:25:12;;;;;;;19.6;12.9;;;;;;;-3.3;60.72656;95996.36;;;;
2021/03/07 00:26:15;;;;;;;19.6;12.9;;;;;;;-3.3;60.72656;95996.36;;;;
2021/03/07 00:27:15;;;;;;;17.35;11.3;;;;;;;-3.43;61.00977;95989.15;;;;
2021/03/07 00:28:16;;;;;;;17.35;11.3;;;;;;;-3.43;61.00977;95989.15;;;;
2021/03/07 00:29:16;;;;;;;17.35;11.3;;;;;;;-3.43;61.00977;95989.15;;;;
2021/03/07 00:30:17;;;;;;;17.35;11.3;;;;;;;-3.43;61.00977;95989.15;;;;
2021/03/07 00:31:19;;;;;;;17.35;11.3;;;;;;;-3.43;61.00977;95989.15;;;;
2021/03/07 00:32:19;;;;;;;17.35;11.3;;;;;;;-3.43;61.00977;95989.15;;;;
2021/03/07 00:33:20;;;;;;;17.35;11.3;;;;;;;-3.43;61.00977;95989.15;;;;
2021/03/07 00:34:20;;;;;;;17.35;11.3;;;;;;;-3.43;61.00977;95989.15;;;;
2021/03/07 00:35:21;;;;;;;17.35;11.3;;;;;;;-3.43;61.00977;95989.15;;;;
2021/03/07 00:36:22;;;;;;;17.35;11.3;;;;;;;-3.43;61.00977;95989.15;;;;
2021/03/07 00:37:22;;;;;;;15;10.6;;;;;;;-3.54;61.38867;95976.06;;;;
2021/03/07 00:38:23;;;;;;;15;10.6;;;;;;;-3.54;61.38867;95976.06;;;;
2021/03/07 00:39:23;;;;;;;15;10.6;;;;;;;-3.54;61.38867;95976.06;;;;
2021/03/07 00:40:24;;;;;;;15;10.6;;;;;;;-3.54;61.38867;95976.06;;;;
2021/03/07 00:41:24;;;;;;;15;10.6;;;;;;;-3.54;61.38867;95976.06;;;;
2021/03/07 00:42:25;;;;;;;15;10.6;;;;;;;-3.54;61.38867;95976.06;;;;
2021/03/07 00:43:25;;;;;;;15;10.6;;;;;;;-3.54;61.38867;95976.06;;;;
2021/03/07 00:44:26;;;;;;;15;10.6;;;;;;;-3.54;61.38867;95976.06;;;;
2021/03/07 00:45:27;;;;;;;15;10.6;;;;;;;-3.54;61.38867;95976.06;;;;
2021/03/07 00:46:28;;;;;;;15;10.6;;;;;;;-3.54;61.38867;95976.06;;;;
2021/03/07 00:47:28;;;;;;;15;10.6;;;;;;;-3.54;61.38867;95976.06;;;;
2021/03/07 00:48:29;;;;;;;15.1;10.45;;;;;;;-3.63;61.67578;95979.07;;;;
2021/03/07 00:49:29;;;;;;;15.1;10.45;;;;;;;-3.63;61.67578;95979.07;;;;
2021/03/07 00:50:32;;;;;;;15.1;10.45;;;;;;;-3.63;61.67578;95979.07;;;;
2021/03/07 00:51:32;;;;;;;15.1;10.45;;;;;;;-3.63;61.67578;95979.07;;;;
2021/03/07 00:52:33;;;;;;;15.1;10.45;;;;;;;-3.63;61.67578;95979.07;;;;
2021/03/07 00:53:34;;;;;;;15.1;10.45;;;;;;;-3.63;61.67578;95979.07;;;;
2021/03/07 00:54:34;;;;;;;15.1;10.45;;;;;;;-3.63;61.67578;95979.07;;;;
2021/03/07 00:55:35;;;;;;;15.1;10.45;;;;;;;-3.63;61.67578;95979.07;;;;
2021/03/07 00:56:36;;;;;;;15.1;10.45;;;;;;;-3.63;61.67578;95979.07;;;;
2021/03/07 00:57:36;;;;;;;15.1;10.45;;;;;;;-3.63;61.67578;95979.07;;;;
2021/03/07 00:58:37;;;;;;;14.75;11;;;;;;;-3.69;62.04102;95959.41;;;;
2021/03/07 00:59:37;;;;;;;14.75;11;;;;;;;-3.69;62.04102;95959.41;;;;
2021/03/07 01:00:37;;;;;;;14.75;11;;;;;;;-3.69;62.04102;95959.41;;;;
2021/03/07 01:01:39;;;;;;;14.75;11;;;;;;;-3.69;62.04102;95959.41;;;;
2021/03/07 01:02:40;;;;;;;14.75;11;;;;;;;-3.69;62.04102;95959.41;;;;
2021/03/07 01:03:40;;;;;;;14.75;11;;;;;;;-3.69;62.04102;95959.41;;;;
2021/03/07 01:04:41;;;;;;;14.75;11;;;;;;;-3.69;62.04102;95959.41;;;;
2021/03/07 01:05:41;;;;;;;14.75;11;;;;;;;-3.69;62.04102;95959.41;;;;
2021/03/07 01:06:42;;;;;;;14.75;11;;;;;;;-3.69;62.04102;95959.41;;;;
2021/03/07 01:07:43;;;;;;;14.75;11;;;;;;;-3.69;62.04102;95959.41;;;;
2021/03/07 01:08:44;;;;;;;14.75;11;;;;;;;-3.69;62.04102;95959.41;;;;
2021/03/07 01:09:44;;;;;;;15.1;10.45;;;;;;;-3.72;62.27539;95954.38;;;;
2021/03/07 01:10:45;;;;;;;15.1;10.45;;;;;;;-3.72;62.27539;95954.38;;;;
2021/03/07 01:11:46;;;;;;;15.1;10.45;;;;;;;-3.72;62.27539;95954.38;;;;
2021/03/07 01:12:47;;;;;;;15.1;10.45;;;;;;;-3.72;62.27539;95954.38;;;;
2021/03/07 01:13:50;;;;;;;15.1;10.45;;;;;;;-3.72;62.27539;95954.38;;;;
2021/03/07 01:14:50;;;;;;;15.1;10.45;;;;;;;-3.72;62.27539;95954.38;;;;
2021/03/07 01:15:51;;;;;;;15.1;10.45;;;;;;;-3.72;62.27539;95954.38;;;;
2021/03/07 01:16:51;;;;;;;15.1;10.45;;;;;;;-3.72;62.27539;95954.38;;;;
2021/03/07 01:17:52;;;;;;;15.1;10.45;;;;;;;-3.72;62.27539;95954.38;;;;
2021/03/07 01:18:52;;;;;;;15.1;10.45;;;;;;;-3.72;62.27539;95954.38;;;;
2021/03/07 01:19:53;;;;;;;15.1;10.45;;;;;;;-3.72;62.27539;95954.38;;;;
2021/03/07 01:20:53;;;;;;;15.35;10.65;;;;;;;-3.81;62.43945;95948.58;;;;
2021/03/07 01:21:54;;;;;;;15.35;10.65;;;;;;;-3.81;62.43945;95948.58;;;;
2021/03/07 01:22:55;;;;;;;15.35;10.65;;;;;;;-3.81;62.43945;95948.58;;;;
2021/03/07 01:23:56;;;;;;;15.35;10.65;;;;;;;-3.81;62.43945;95948.58;;;;
2021/03/07 01:24:56;;;;;;;15.35;10.65;;;;;;;-3.81;62.43945;95948.58;;;;
2021/03/07 01:25:57;;;;;;;15.35;10.65;;;;;;;-3.81;62.43945;95948.58;;;;
2021/03/07 01:26:58;;;;;;;15.35;10.65;;;;;;;-3.81;62.43945;95948.58;;;;
2021/03/07 01:27:58;;;;;;;15.35;10.65;;;;;;;-3.81;62.43945;95948.58;;;;
2021/03/07 01:28:59;;;;;;;15.35;10.65;;;;;;;-3.81;62.43945;95948.58;;;;
2021/03/07 01:30:00;;;;;;;15.35;10.65;;;;;;;-3.81;62.43945;95948.58;;;;
2021/03/07 01:31:01;;;;;;;15.1;9.950001;;;;;;;-3.9;62.79883;95944.14;;;;
2021/03/07 01:32:02;;;;;;;15.1;9.950001;;;;;;;-3.9;62.79883;95944.14;;;;
2021/03/07 01:33:02;;;;;;;15.1;9.950001;;;;;;;-3.9;62.79883;95944.14;;;;
2021/03/07 01:34:04;;;;;;;15.1;9.950001;;;;;;;-3.9;62.79883;95944.14;;;;
2021/03/07 01:35:05;;;;;;;15.1;9.950001;;;;;;;-3.9;62.79883;95944.14;;;;
2021/03/07 01:36:06;;;;;;;15.1;9.950001;;;;;;;-3.9;62.79883;95944.14;;;;
2021/03/07 01:37:07;;;;;;;15.1;9.950001;;;;;;;-3.9;62.79883;95944.14;;;;
2021/03/07 01:38:07;;;;;;;15.1;9.950001;;;;;;;-3.9;62.79883;95944.14;;;;
2021/03/07 01:39:08;;;;;;;15.1;9.950001;;;;;;;-3.9;62.79883;95944.14;;;;
2021/03/07 01:40:09;;;;;;;15.1;9.950001;;;;;;;-3.9;62.79883;95944.14;;;;
2021/03/07 01:41:13;;;;;;;15.1;9.950001;;;;;;;-3.9;62.79883;95944.14;;;;
2021/03/07 01:42:13;;;;;;;18.55;11.45;;;;;;;-3.92;62.98242;95937.23;;;;
2021/03/07 01:43:14;;;;;;;18.55;11.45;;;;;;;-3.92;62.98242;95937.23;;;;
2021/03/07 01:44:17;;;;;;;18.55;11.45;;;;;;;-3.92;62.98242;95937.23;;;;
2021/03/07 01:45:17;;;;;;;18.55;11.45;;;;;;;-3.92;62.98242;95937.23;;;;
2021/03/07 01:46:19;;;;;;;18.55;11.45;;;;;;;-3.92;62.98242;95937.23;;;;
2021/03/07 01:47:20;;;;;;;18.55;11.45;;;;;;;-3.92;62.98242;95937.23;;;;
2021/03/07 01:48:32;;;;;;;18.55;11.45;;;;;;;-3.92;62.98242;95937.23;;;;
2021/03/07 01:49:33;;;;;;;18.55;11.45;;;;;;;-3.92;62.98242;95937.23;;;;
2021/03/07 01:50:35;;;;;;;18.55;11.45;;;;;;;-3.92;62.98242;95937.23;;;;
2021/03/07 01:51:38;;;;;;;18.55;11.45;;;;;;;-3.92;62.98242;95937.23;;;;
2021/03/07 01:52:38;;;;;;;12.25;8.799999;;;;;;;-3.93;63.41699;95921.06;;;;
2021/03/07 01:53:39;;;;;;;12.25;8.799999;;;;;;;-3.93;63.41699;95921.06;;;;
2021/03/07 01:54:40;;;;;;;12.25;8.799999;;;;;;;-3.93;63.41699;95921.06;;;;
2021/03/07 01:55:41;;;;;;;12.25;8.799999;;;;;;;-3.93;63.41699;95921.06;;;;
2021/03/07 01:56:43;;;;;;;12.25;8.799999;;;;;;;-3.93;63.41699;95921.06;;;;
2021/03/07 01:57:45;;;;;;;12.25;8.799999;;;;;;;-3.93;63.41699;95921.06;;;;
2021/03/07 01:58:47;;;;;;;12.25;8.799999;;;;;;;-3.93;63.41699;95921.06;;;;
2021/03/07 01:59:51;;;;;;;12.25;8.799999;;;;;;;-3.93;63.41699;95921.06;;;;
2021/03/07 02:00:54;;;;;;;12.25;8.799999;;;;;;;-3.93;63.41699;95921.06;;;;
2021/03/07 02:01:55;;;;;;;12.25;8.799999;;;;;;;-3.93;63.41699;95921.06;;;;
2021/03/07 02:02:57;;;;;;;11.5;8.75;;;;;;;-3.94;63.38477;95911.89;;;;
2021/03/07 02:03:57;;;;;;;11.5;8.75;;;;;;;-3.94;63.38477;95911.89;;;;
2021/03/07 02:04:58;;;;;;;11.5;8.75;;;;;;;-3.94;63.38477;95911.89;;;;
2021/03/07 02:05:58;;;;;;;11.5;8.75;;;;;;;-3.94;63.38477;95911.89;;;;
2021/03/07 02:06:59;;;;;;;11.5;8.75;;;;;;;-3.94;63.38477;95911.89;;;;
2021/03/07 02:08:00;;;;;;;11.5;8.75;;;;;;;-3.94;63.38477;95911.89;;;;
2021/03/07 02:09:00;;;;;;;11.5;8.75;;;;;;;-3.94;63.38477;95911.89;;;;
2021/03/07 02:10:01;;;;;;;11.5;8.75;;;;;;;-3.94;63.38477;95911.89;;;;
2021/03/07 02:11:03;;;;;;;11.5;8.75;;;;;;;-3.94;63.38477;95911.89;;;;
2021/03/07 02:12:04;;;;;;;11.5;8.75;;;;;;;-3.94;63.38477;95911.89;;;;
2021/03/07 02:13:06;;;;;;;11.5;8.75;;;;;;;-3.94;63.38477;95911.89;;;;
2021/03/07 02:14:10;;;;;;;12.55;9.399999;;;;;;;-3.97;63.65039;95905.57;;;;
2021/03/07 02:15:11;;;;;;;12.55;9.399999;;;;;;;-3.97;63.65039;95905.57;;;;
2021/03/07 02:16:13;;;;;;;12.55;9.399999;;;;;;;-3.97;63.65039;95905.57;;;;
2021/03/07 02:17:16;;;;;;;12.55;9.399999;;;;;;;-3.97;63.65039;95905.57;;;;
2021/03/07 02:18:18;;;;;;;12.55;9.399999;;;;;;;-3.97;63.65039;95905.57;;;;
2021/03/07 02:19:20;;;;;;;12.55;9.399999;;;;;;;-3.97;63.65039;95905.57;;;;
2021/03/07 02:20:23;;;;;;;12.55;9.399999;;;;;;;-3.97;63.65039;95905.57;;;;
2021/03/07 02:21:31;;;;;;;12.55;9.399999;;;;;;;-3.97;63.65039;95905.57;;;;
2021/03/07 02:22:36;;;;;;;12.55;9.399999;;;;;;;-3.97;63.65039;95905.57;;;;
2021/03/07 02:23:42;;;;;;;12.55;9.399999;;;;;;;-3.97;63.65039;95905.57;;;;
2021/03/07 02:25:04;;;;;;;11.35;8.4;;;;;;;-4;63.89453;95897.05;;;;
2021/03/07 02:26:07;;;;;;;11.35;8.4;;;;;;;-4;63.89453;95897.05;;;;
2021/03/07 02:27:07;;;;;;;11.35;8.4;;;;;;;-4;63.89453;95897.05;;;;
2021/03/07 02:28:08;;;;;;;11.35;8.4;;;;;;;-4;63.89453;95897.05;;;;
2021/03/07 02:29:09;;;;;;;11.35;8.4;;;;;;;-4;63.89453;95897.05;;;;
2021/03/07 02:30:11;;;;;;;11.35;8.4;;;;;;;-4;63.89453;95897.05;;;;
2021/03/07 02:31:13;;;;;;;11.35;8.4;;;;;;;-4;63.89453;95897.05;;;;
2021/03/07 02:32:16;;;;;;;11.35;8.4;;;;;;;-4;63.89453;95897.05;;;;
2021/03/07 02:33:20;;;;;;;11.35;8.4;;;;;;;-4;63.89453;95897.05;;;;
2021/03/07 02:34:26;;;;;;;11.35;8.4;;;;;;;-4;63.89453;95897.05;;;;
2021/03/07 02:35:30;;;;;;;10.55;8.35;;;;;;;-4.04;64.04297;95896.1;;;;
2021/03/07 02:36:33;;;;;;;10.55;8.35;;;;;;;-4.04;64.04297;95896.1;;;;
2021/03/07 02:37:41;;;;;;;10.55;8.35;;;;;;;-4.04;64.04297;95896.1;;;;
2021/03/07 02:38:48;;;;;;;10.55;8.35;;;;;;;-4.04;64.04297;95896.1;;;;
2021/03/07 02:39:50;;;;;;;10.55;8.35;;;;;;;-4.04;64.04297;95896.1;;;;
2021/03/07 02:40:51;;;;;;;10.55;8.35;;;;;;;-4.04;64.04297;95896.1;;;;
2021/03/07 02:41:55;;;;;;;10.55;8.35;;;;;;;-4.04;64.04297;95896.1;;;;
2021/03/07 02:42:59;;;;;;;10.55;8.35;;;;;;;-4.04;64.04297;95896.1;;;;
2021/03/07 02:44:02;;;;;;;10.55;8.35;;;;;;;-4.04;64.04297;95896.1;;;;
2021/03/07 02:45:07;;;;;;;10.55;8.35;;;;;;;-4.04;64.04297;95896.1;;;;
2021/03/07 02:46:11;;;;;;;13;9.500001;;;;;;;-4.2;64.2168;95883;;;;
2021/03/07 02:47:15;;;;;;;13;9.500001;;;;;;;-4.2;64.2168;95883;;;;
2021/03/07 02:48:17;;;;;;;13;9.500001;;;;;;;-4.2;64.2168;95883;;;;
2021/03/07 02:49:26;;;;;;;13;9.500001;;;;;;;-4.2;64.2168;95883;;;;
2021/03/07 02:50:27;;;;;;;13;9.500001;;;;;;;-4.2;64.2168;95883;;;;
2021/03/07 02:51:30;;;;;;;13;9.500001;;;;;;;-4.2;64.2168;95883;;;;
2021/03/07 02:52:34;;;;;;;13;9.500001;;;;;;;-4.2;64.2168;95883;;;;
2021/03/07 02:53:36;;;;;;;13;9.500001;;;;;;;-4.2;64.2168;95883;;;;
2021/03/07 02:54:39;;;;;;;13;9.500001;;;;;;;-4.2;64.2168;95883;;;;
2021/03/07 02:55:41;;;;;;;13;9.500001;;;;;;;-4.2;64.2168;95883;;;;
2021/03/07 02:56:43;;;;;;;12.4;9.099999;;;;;;;-4.32;64.47852;95867.35;;;;
2021/03/07 02:57:49;;;;;;;12.4;9.099999;;;;;;;-4.32;64.47852;95867.35;;;;
2021/03/07 02:58:51;;;;;;;12.4;9.099999;;;;;;;-4.32;64.47852;95867.35;;;;
2021/03/07 02:59:56;;;;;;;12.4;9.099999;;;;;;;-4.32;64.47852;95867.35;;;;
2021/03/07 03:00:57;;;;;;;12.4;9.099999;;;;;;;-4.32;64.47852;95867.35;;;;
2021/03/07 03:02:00;;;;;;;12.4;9.099999;;;;;;;-4.32;64.47852;95867.35;;;;
2021/03/07 03:03:04;;;;;;;12.4;9.099999;;;;;;;-4.32;64.47852;95867.35;;;;
2021/03/07 03:04:08;;;;;;;12.4;9.099999;;;;;;;-4.32;64.47852;95867.35;;;;
2021/03/07 03:05:09;;;;;;;12.4;9.099999;;;;;;;-4.32;64.47852;95867.35;;;;
2021/03/07 03:06:12;;;;;;;12.4;9.099999;;;;;;;-4.32;64.47852;95867.35;;;;
2021/03/07 03:07:15;;;;;;;9.950002;7.849999;;;;;;;-4.4;64.88086;95870.22;;;;
2021/03/07 03:08:16;;;;;;;9.950002;7.849999;;;;;;;-4.4;64.88086;95870.22;;;;
2021/03/07 03:09:17;;;;;;;9.950002;7.849999;;;;;;;-4.4;64.88086;95870.22;;;;
2021/03/07 03:10:18;;;;;;;9.950002;7.849999;;;;;;;-4.4;64.88086;95870.22;;;;
2021/03/07 03:11:20;;;;;;;9.950002;7.849999;;;;;;;-4.4;64.88086;95870.22;;;;
2021/03/07 03:12:24;;;;;;;9.950002;7.849999;;;;;;;-4.4;64.88086;95870.22;;;;
2021/03/07 03:13:29;;;;;;;9.950002;7.849999;;;;;;;-4.4;64.88086;95870.22;;;;
2021/03/07 03:14:32;;;;;;;9.950002;7.849999;;;;;;;-4.4;64.88086;95870.22;;;;
2021/03/07 03:15:33;;;;;;;9.950002;7.849999;;;;;;;-4.4;64.88086;95870.22;;;;
2021/03/07 03:16:35;;;;;;;9.950002;7.849999;;;;;;;-4.4;64.88086;95870.22;;;;
2021/03/07 03:17:36;;;;;;;10.25;8.000002;;;;;;;-4.47;64.9834;95855.05;;;;
2021/03/07 03:18:38;;;;;;;10.25;8.000002;;;;;;;-4.47;64.9834;95855.05;;;;
2021/03/07 03:19:40;;;;;;;10.25;8.000002;;;;;;;-4.47;64.9834;95855.05;;;;
2021/03/07 03:20:44;;;;;;;10.25;8.000002;;;;;;;-4.47;64.9834;95855.05;;;;
2021/03/07 03:21:49;;;;;;;10.25;8.000002;;;;;;;-4.47;64.9834;95855.05;;;;
2021/03/07 03:22:50;;;;;;;10.25;8.000002;;;;;;;-4.47;64.9834;95855.05;;;;
2021/03/07 03:23:51;;;;;;;10.25;8.000002;;;;;;;-4.47;64.9834;95855.05;;;;
2021/03/07 03:24:52;;;;;;;10.25;8.000002;;;;;;;-4.47;64.9834;95855.05;;;;
2021/03/07 03:25:52;;;;;;;10.25;8.000002;;;;;;;-4.47;64.9834;95855.05;;;;
2021/03/07 03:27:01;;;;;;;10.25;8.000002;;;;;;;-4.47;64.9834;95855.05;;;;
2021/03/07 03:28:02;;;;;;;10.25;8.000002;;;;;;;-4.47;64.9834;95855.05;;;;
2021/03/07 03:29:03;;;;;;;10.6;8.150001;;;;;;;-4.55;65.03418;95846.48;;;;
2021/03/07 03:30:05;;;;;;;10.6;8.150001;;;;;;;-4.55;65.03418;95846.48;;;;
2021/03/07 03:31:09;;;;;;;10.6;8.150001;;;;;;;-4.55;65.03418;95846.48;;;;
2021/03/07 03:32:10;;;;;;;10.6;8.150001;;;;;;;-4.55;65.03418;95846.48;;;;
2021/03/07 03:33:10;;;;;;;10.6;8.150001;;;;;;;-4.55;65.03418;95846.48;;;;
2021/03/07 03:34:11;;;;;;;10.6;8.150001;;;;;;;-4.55;65.03418;95846.48;;;;
2021/03/07 03:35:11;;;;;;;10.6;8.150001;;;;;;;-4.55;65.03418;95846.48;;;;
2021/03/07 03:36:14;;;;;;;10.6;8.150001;;;;;;;-4.55;65.03418;95846.48;;;;
2021/03/07 03:37:15;;;;;;;10.6;8.150001;;;;;;;-4.55;65.03418;95846.48;;;;
2021/03/07 03:38:18;;;;;;;10.6;8.150001;;;;;;;-4.55;65.03418;95846.48;;;;
2021/03/07 03:39:20;;;;;;;11.05;8.199999;;;;;;;-4.64;65.1748;95839.36;;;;
2021/03/07 03:40:23;;;;;;;11.05;8.199999;;;;;;;-4.64;65.1748;95839.36;;;;
2021/03/07 03:41:25;;;;;;;11.05;8.199999;;;;;;;-4.64;65.1748;95839.36;;;;
2021/03/07 03:42:31;;;;;;;11.05;8.199999;;;;;;;-4.64;65.1748;95839.36;;;;
2021/03/07 03:43:32;;;;;;;11.05;8.199999;;;;;;;-4.64;65.1748;95839.36;;;;
2021/03/07 03:44:33;;;;;;;11.05;8.199999;;;;;;;-4.64;65.1748;95839.36;;;;
2021/03/07 03:45:38;;;;;;;11.05;8.199999;;;;;;;-4.64;65.1748;95839.36;;;;
2021/03/07 03:46:42;;;;;;;11.05;8.199999;;;;;;;-4.64;65.1748;95839.36;;;;
2021/03/07 03:47:47;;;;;;;11.05;8.199999;;;;;;;-4.64;65.1748;95839.36;;;;
2021/03/07 03:48:53;;;;;;;11.05;8.199999;;;;;;;-4.64;65.1748;95839.36;;;;
2021/03/07 03:49:59;;;;;;;12.85;8.799999;;;;;;;-4.69;65.43555;95836.77;;;;
2021/03/07 03:51:03;;;;;;;12.85;8.799999;;;;;;;-4.69;65.43555;95836.77;;;;
2021/03/07 03:52:07;;;;;;;12.85;8.799999;;;;;;;-4.69;65.43555;95836.77;;;;
2021/03/07 03:53:09;;;;;;;12.85;8.799999;;;;;;;-4.69;65.43555;95836.77;;;;
2021/03/07 03:54:13;;;;;;;12.85;8.799999;;;;;;;-4.69;65.43555;95836.77;;;;
2021/03/07 03:55:18;;;;;;;12.85;8.799999;;;;;;;-4.69;65.43555;95836.77;;;;
2021/03/07 03:56:23;;;;;;;12.85;8.799999;;;;;;;-4.69;65.43555;95836.77;;;;
2021/03/07 03:57:25;;;;;;;12.85;8.799999;;;;;;;-4.69;65.43555;95836.77;;;;
2021/03/07 03:58:28;;;;;;;12.85;8.799999;;;;;;;-4.69;65.43555;95836.77;;;;
2021/03/07 03:59:42;;;;;;;12.85;8.799999;;;;;;;-4.69;65.43555;95836.77;;;;
2021/03/07 04:00:46;;;;;;;10.9;8.400002;;;;;;;-4.67;65.65723;95825.62;;;;
2021/03/07 04:01:48;;;;;;;10.9;8.400002;;;;;;;-4.67;65.65723;95825.62;;;;
2021/03/07 04:02:49;;;;;;;10.9;8.400002;;;;;;;-4.67;65.65723;95825.62;;;;
2021/03/07 04:03:54;;;;;;;10.9;8.400002;;;;;;;-4.67;65.65723;95825.62;;;;
2021/03/07 04:04:55;;;;;;;10.9;8.400002;;;;;;;-4.67;65.65723;95825.62;;;;
2021/03/07 04:05:58;;;;;;;10.9;8.400002;;;;;;;-4.67;65.65723;95825.62;;;;
2021/03/07 04:06:59;;;;;;;10.9;8.400002;;;;;;;-4.67;65.65723;95825.62;;;;
2021/03/07 04:07:59;;;;;;;10.9;8.400002;;;;;;;-4.67;65.65723;95825.62;;;;
2021/03/07 04:09:01;;;;;;;10.9;8.400002;;;;;;;-4.67;65.65723;95825.62;;;;
2021/03/07 04:10:03;;;;;;;10.9;8.400002;;;;;;;-4.67;65.65723;95825.62;;;;
2021/03/07 04:11:06;;;;;;;11;9;;;;;;;-4.67;65.69824;95830.42;;;;
2021/03/07 04:12:07;;;;;;;11;9;;;;;;;-4.67;65.69824;95830.42;;;;
2021/03/07 04:13:08;;;;;;;11;9;;;;;;;-4.67;65.69824;95830.42;;;;
2021/03/07 04:14:11;;;;;;;11;9;;;;;;;-4.67;65.69824;95830.42;;;;
2021/03/07 04:15:12;;;;;;;11;9;;;;;;;-4.67;65.69824;95830.42;;;;
2021/03/07 04:16:16;;;;;;;11;9;;;;;;;-4.67;65.69824;95830.42;;;;
2021/03/07 04:17:17;;;;;;;11;9;;;;;;;-4.67;65.69824;95830.42;;;;
2021/03/07 04:18:22;;;;;;;11;9;;;;;;;-4.67;65.69824;95830.42;;;;
2021/03/07 04:19:26;;;;;;;11;9;;;;;;;-4.67;65.69824;95830.42;;;;
2021/03/07 04:20:28;;;;;;;11;9;;;;;;;-4.67;65.69824;95830.42;;;;
2021/03/07 04:21:29;;;;;;;11.55;8.500002;;;;;;;-4.7;65.7666;95835.53;;;;
2021/03/07 04:22:30;;;;;;;11.55;8.500002;;;;;;;-4.7;65.7666;95835.53;;;;
2021/03/07 04:23:31;;;;;;;11.55;8.500002;;;;;;;-4.7;65.7666;95835.53;;;;
2021/03/07 04:24:32;;;;;;;11.55;8.500002;;;;;;;-4.7;65.7666;95835.53;;;;
2021/03/07 04:25:32;;;;;;;11.55;8.500002;;;;;;;-4.7;65.7666;95835.53;;;;
2021/03/07 04:26:33;;;;;;;11.55;8.500002;;;;;;;-4.7;65.7666;95835.53;;;;
2021/03/07 04:27:35;;;;;;;11.55;8.500002;;;;;;;-4.7;65.7666;95835.53;;;;
2021/03/07 04:28:36;;;;;;;11.55;8.500002;;;;;;;-4.7;65.7666;95835.53;;;;
2021/03/07 04:29:38;;;;;;;11.55;8.500002;;;;;;;-4.7;65.7666;95835.53;;;;
2021/03/07 04:30:40;;;;;;;11.55;8.500002;;;;;;;-4.7;65.7666;95835.53;;;;
2021/03/07 04:31:41;;;;;;;11.55;8.500002;;;;;;;-4.7;65.7666;95835.53;;;;
2021/03/07 04:32:43;;;;;;;12.25;8.999999;;;;;;;-4.75;65.88184;95834.17;;;;
2021/03/07 04:33:44;;;;;;;12.25;8.999999;;;;;;;-4.75;65.88184;95834.17;;;;
2021/03/07 04:34:45;;;;;;;12.25;8.999999;;;;;;;-4.75;65.88184;95834.17;;;;
2021/03/07 04:35:47;;;;;;;12.25;8.999999;;;;;;;-4.75;65.88184;95834.17;;;;
2021/03/07 04:36:48;;;;;;;12.25;8.999999;;;;;;;-4.75;65.88184;95834.17;;;;
2021/03/07 04:37:49;;;;;;;12.25;8.999999;;;;;;;-4.75;65.88184;95834.17;;;;
2021/03/07 04:38:50;;;;;;;12.25;8.999999;;;;;;;-4.75;65.88184;95834.17;;;;
2021/03/07 04:39:51;;;;;;;12.25;8.999999;;;;;;;-4.75;65.88184;95834.17;;;;
2021/03/07 04:40:52;;;;;;;12.25;8.999999;;;;;;;-4.75;65.88184;95834.17;;;;
2021/03/07 04:41:52;;;;;;;12.25;8.999999;;;;;;;-4.75;65.88184;95834.17;;;;
2021/03/07 04:42:53;;;;;;;13.45;9.7;;;;;;;-4.89;66.18164;95827.03;;;;
2021/03/07 04:43:56;;;;;;;13.45;9.7;;;;;;;-4.89;66.18164;95827.03;;;;
2021/03/07 04:44:57;;;;;;;13.45;9.7;;;;;;;-4.89;66.18164;95827.03;;;;
2021/03/07 04:45:57;;;;;;;13.45;9.7;;;;;;;-4.89;66.18164;95827.03;;;;
2021/03/07 04:46:58;;;;;;;13.45;9.7;;;;;;;-4.89;66.18164;95827.03;;;;
2021/03/07 04:47:59;;;;;;;13.45;9.7;;;;;;;-4.89;66.18164;95827.03;;;;
2021/03/07 04:49:00;;;;;;;13.45;9.7;;;;;;;-4.89;66.18164;95827.03;;;;
2021/03/07 04:50:00;;;;;;;13.45;9.7;;;;;;;-4.89;66.18164;95827.03;;;;
2021/03/07 04:51:01;;;;;;;13.45;9.7;;;;;;;-4.89;66.18164;95827.03;;;;
2021/03/07 04:52:02;;;;;;;13.45;9.7;;;;;;;-4.89;66.18164;95827.03;;;;
2021/03/07 04:53:03;;;;;;;13.45;9.7;;;;;;;-4.89;66.18164;95827.03;;;;
2021/03/07 04:54:03;;;;;;;15.15;10.3;;;;;;;-4.89;66.43848;95819.61;;;;
2021/03/07 04:55:04;;;;;;;15.15;10.3;;;;;;;-4.89;66.43848;95819.61;;;;
2021/03/07 04:56:06;;;;;;;15.15;10.3;;;;;;;-4.89;66.43848;95819.61;;;;
2021/03/07 04:57:07;;;;;;;15.15;10.3;;;;;;;-4.89;66.43848;95819.61;;;;
2021/03/07 04:58:08;;;;;;;15.15;10.3;;;;;;;-4.89;66.43848;95819.61;;;;
2021/03/07 04:59:08;;;;;;;15.15;10.3;;;;;;;-4.89;66.43848;95819.61;;;;
2021/03/07 05:00:09;;;;;;;15.15;10.3;;;;;;;-4.89;66.43848;95819.61;;;;
2021/03/07 05:01:12;;;;;;;15.15;10.3;;;;;;;-4.89;66.43848;95819.61;;;;
2021/03/07 05:02:13;;;;;;;15.15;10.3;;;;;;;-4.89;66.43848;95819.61;;;;
2021/03/07 05:03:14;;;;;;;15.15;10.3;;;;;;;-4.89;66.43848;95819.61;;;;
2021/03/07 05:04:15;;;;;;;20.5;12.65;;;;;;;-4.89;66.43848;95815.26;;;;
2021/03/07 05:05:15;;;;;;;20.5;12.65;;;;;;;-4.89;66.43848;95815.26;;;;
2021/03/07 05:06:16;;;;;;;20.5;12.65;;;;;;;-4.89;66.43848;95815.26;;;;
2021/03/07 05:07:17;;;;;;;20.5;12.65;;;;;;;-4.89;66.43848;95815.26;;;;
2021/03/07 05:08:18;;;;;;;20.5;12.65;;;;;;;-4.89;66.43848;95815.26;;;;
2021/03/07 05:09:18;;;;;;;20.5;12.65;;;;;;;-4.89;66.43848;95815.26;;;;
2021/03/07 05:10:19;;;;;;;20.5;12.65;;;;;;;-4.89;66.43848;95815.26;;;;
2021/03/07 05:11:21;;;;;;;20.5;12.65;;;;;;;-4.89;66.43848;95815.26;;;;
2021/03/07 05:12:22;;;;;;;20.5;12.65;;;;;;;-4.89;66.43848;95815.26;;;;
2021/03/07 05:13:23;;;;;;;20.5;12.65;;;;;;;-4.89;66.43848;95815.26;;;;
2021/03/07 05:14:23;;;;;;;20.5;12.65;;;;;;;-4.89;66.43848;95815.26;;;;
2021/03/07 05:15:24;;;;;;;22.9;13.15;;;;;;;-4.99;66.59961;95813.87;;;;
2021/03/07 05:16:24;;;;;;;22.9;13.15;;;;;;;-4.99;66.59961;95813.87;;;;
2021/03/07 05:17:27;;;;;;;22.9;13.15;;;;;;;-4.99;66.59961;95813.87;;;;
2021/03/07 05:18:27;;;;;;;22.9;13.15;;;;;;;-4.99;66.59961;95813.87;;;;
2021/03/07 05:19:28;;;;;;;22.9;13.15;;;;;;;-4.99;66.59961;95813.87;;;;
2021/03/07 05:20:28;;;;;;;22.9;13.15;;;;;;;-4.99;66.59961;95813.87;;;;
2021/03/07 05:21:29;;;;;;;22.9;13.15;;;;;;;-4.99;66.59961;95813.87;;;;
2021/03/07 05:22:29;;;;;;;22.9;13.15;;;;;;;-4.99;66.59961;95813.87;;;;
2021/03/07 05:23:30;;;;;;;22.9;13.15;;;;;;;-4.99;66.59961;95813.87;;;;
2021/03/07 05:24:30;;;;;;;22.9;13.15;;;;;;;-4.99;66.59961;95813.87;;;;
2021/03/07 05:25:31;;;;;;;15.85;9.7;;;;;;;-4.98;66.89063;95804.11;;;;
2021/03/07 05:26:31;;;;;;;15.85;9.7;;;;;;;-4.98;66.89063;95804.11;;;;
2021/03/07 05:27:32;;;;;;;15.85;9.7;;;;;;;-4.98;66.89063;95804.11;;;;
2021/03/07 05:28:32;;;;;;;15.85;9.7;;;;;;;-4.98;66.89063;95804.11;;;;
2021/03/07 05:29:33;;;;;;;15.85;9.7;;;;;;;-4.98;66.89063;95804.11;;;;
2021/03/07 05:30:36;;;;;;;15.85;9.7;;;;;;;-4.98;66.89063;95804.11;;;;
2021/03/07 05:31:36;;;;;;;15.85;9.7;;;;;;;-4.98;66.89063;95804.11;;;;
2021/03/07 05:32:37;;;;;;;15.85;9.7;;;;;;;-4.98;66.89063;95804.11;;;;
2021/03/07 05:33:37;;;;;;;15.85;9.7;;;;;;;-4.98;66.89063;95804.11;;;;
2021/03/07 05:34:38;;;;;;;15.85;9.7;;;;;;;-4.98;66.89063;95804.11;;;;
2021/03/07 05:35:38;;;;;;;15.85;9.7;;;;;;;-4.98;66.89063;95804.11;;;;
2021/03/07 05:36:39;;;;;;;12.05;8.500001;;;;;;;-4.92;67.14746;95806.23;;;;
2021/03/07 05:37:39;;;;;;;12.05;8.500001;;;;;;;-4.92;67.14746;95806.23;;;;
2021/03/07 05:38:40;;;;;;;12.05;8.500001;;;;;;;-4.92;67.14746;95806.23;;;;
2021/03/07 05:39:40;;;;;;;12.05;8.500001;;;;;;;-4.92;67.14746;95806.23;;;;
2021/03/07 05:40:41;;;;;;;12.05;8.500001;;;;;;;-4.92;67.14746;95806.23;;;;
2021/03/07 05:41:42;;;;;;;12.05;8.500001;;;;;;;-4.92;67.14746;95806.23;;;;